createdAt,value
2019-05-29T00:00:21.120Z,1.70
2019-05-29T00:02:49.547Z,1.50
2019-05-29T00:05:18.411Z,2.00
2019-05-29T00:07:48.981Z,1.70
2019-05-29T00:10:18.611Z,1.70
2019-05-29T00:12:47.121Z,2.20
2019-05-29T00:15:15.507Z,1.90
2019-05-29T00:17:43.907Z,1.80
2019-05-29T00:20:12.402Z,2.10
2019-05-29T00:22:40.789Z,2.10
2019-05-29T00:25:10.493Z,2.10
2019-05-29T00:27:39.071Z,1.97
2019-05-29T00:30:08.555Z,1.60
2019-05-29T00:32:37.228Z,1.70
2019-05-29T00:35:08.104Z,1.90
2019-05-29T00:37:36.677Z,1.90
2019-05-29T00:40:08.916Z,1.80
2019-05-29T00:42:37.536Z,2.40
2019-05-29T00:45:09.339Z,2.07
2019-05-29T00:47:37.948Z,1.80
2019-05-29T00:50:07.865Z,1.93
2019-05-29T00:52:36.460Z,1.90
2019-05-29T00:55:05.984Z,2.17
2019-05-29T00:57:34.410Z,2.07
2019-05-29T01:00:03.129Z,2.00
2019-05-29T01:02:31.557Z,2.00
2019-05-29T01:04:59.914Z,1.80
2019-05-29T01:07:28.323Z,2.30
2019-05-29T01:09:56.695Z,1.70
2019-05-29T01:12:25.102Z,2.10
2019-05-29T01:14:53.490Z,2.03
2019-05-29T01:17:21.935Z,2.53
2019-05-29T01:19:50.419Z,2.00
2019-05-29T01:22:18.880Z,2.07
2019-05-29T01:24:47.557Z,2.13
2019-05-29T01:27:16.815Z,2.17
2019-05-29T01:29:45.231Z,2.23
2019-05-29T01:32:13.637Z,2.50
2019-05-29T01:34:42.011Z,2.37
2019-05-29T01:37:10.430Z,2.27
2019-05-29T01:39:38.821Z,2.23
2019-05-29T01:42:07.210Z,2.60
2019-05-29T01:44:35.594Z,2.30
2019-05-29T01:47:04.010Z,2.40
2019-05-29T01:49:32.386Z,2.00
2019-05-29T01:52:00.784Z,2.30
2019-05-29T01:54:29.187Z,2.43
2019-05-29T01:56:57.564Z,2.40
2019-05-29T01:59:25.959Z,2.00
2019-05-29T02:02:15.785Z,2.40
2019-05-29T02:04:44.200Z,2.80
2019-05-29T02:07:12.601Z,2.90
2019-05-29T02:09:40.986Z,2.70
2019-05-29T02:12:09.400Z,2.43
2019-05-29T02:14:38.066Z,2.73
2019-05-29T02:17:06.471Z,2.93
2019-05-29T02:19:34.873Z,2.70
2019-05-29T02:22:03.262Z,2.73
2019-05-29T02:24:31.652Z,2.70
2019-05-29T02:27:00.080Z,2.97
2019-05-29T02:29:28.485Z,2.83
2019-05-29T02:31:56.889Z,3.00
2019-05-29T02:34:27.281Z,3.23
2019-05-29T02:36:55.353Z,3.40
2019-05-29T02:39:25.641Z,3.00
2019-05-29T02:41:53.936Z,3.40
2019-05-29T02:44:23.492Z,3.70
2019-05-29T02:46:51.886Z,4.03
2019-05-29T02:49:21.532Z,3.70
2019-05-29T02:51:49.984Z,4.20
2019-05-29T02:54:18.417Z,4.23
2019-05-29T02:57:06.205Z,3.70
2019-05-29T02:59:34.587Z,4.53
2019-05-29T03:02:02.960Z,4.17
2019-05-29T03:04:32.807Z,5.03
2019-05-29T03:07:01.387Z,4.00
2019-05-29T03:09:30.737Z,4.10
2019-05-29T03:12:00.443Z,4.77
2019-05-29T03:14:29.672Z,4.47
2019-05-29T03:16:58.594Z,5.37
2019-05-29T03:19:28.005Z,4.80
2019-05-29T03:21:56.469Z,5.07
2019-05-29T03:24:26.476Z,5.17
2019-05-29T03:26:54.899Z,4.80
2019-05-29T03:29:23.298Z,4.97
2019-05-29T03:31:51.701Z,4.90
2019-05-29T03:34:20.137Z,5.37
2019-05-29T03:36:49.139Z,5.33
2019-05-29T03:39:17.811Z,4.97
2019-05-29T03:41:46.190Z,5.10
2019-05-29T03:44:14.591Z,5.07
2019-05-29T03:46:46.009Z,4.77
2019-05-29T03:49:13.040Z,5.10
2019-05-29T03:51:41.408Z,4.60
2019-05-29T03:54:09.824Z,4.63
2019-05-29T03:56:38.888Z,4.47
2019-05-29T03:59:07.520Z,5.50
2019-05-29T04:01:37.295Z,5.27
2019-05-29T04:04:05.903Z,5.00
2019-05-29T04:06:35.563Z,5.07
2019-05-29T04:09:05.994Z,5.97
2019-05-29T04:11:35.642Z,4.70
2019-05-29T04:14:04.020Z,5.00
2019-05-29T04:16:52.686Z,5.40
2019-05-29T04:19:03.607Z,6.00
2019-05-29T04:21:32.578Z,5.10
2019-05-29T04:24:04.088Z,5.47
2019-05-29T04:26:33.942Z,6.03
2019-05-29T04:29:02.961Z,6.00
2019-05-29T04:31:32.517Z,6.43
2019-05-29T04:34:01.418Z,6.27
2019-05-29T04:36:30.717Z,7.27
2019-05-29T04:38:59.864Z,6.13
2019-05-29T04:41:28.903Z,6.57
2019-05-29T04:43:58.304Z,6.83
2019-05-29T04:46:26.702Z,7.37
2019-05-29T04:48:55.082Z,7.40
2019-05-29T04:51:23.495Z,6.33
2019-05-29T04:53:51.945Z,7.07
2019-05-29T04:56:20.354Z,6.90
2019-05-29T04:58:48.752Z,7.10
2019-05-29T05:01:17.148Z,6.33
2019-05-29T05:03:45.520Z,6.40
2019-05-29T05:06:13.928Z,6.07
2019-05-29T05:08:42.297Z,5.80
2019-05-29T05:11:10.849Z,5.97
2019-05-29T05:13:39.774Z,5.03
2019-05-29T05:16:08.347Z,4.77
2019-05-29T05:18:37.873Z,4.80
2019-05-29T05:21:06.280Z,5.27
2019-05-29T05:23:34.670Z,4.87
2019-05-29T05:26:03.047Z,4.70
2019-05-29T05:28:32.157Z,5.13
2019-05-29T05:31:00.639Z,4.93
2019-05-29T05:33:30.334Z,4.70
2019-05-29T05:35:58.844Z,4.70
2019-05-29T05:38:27.250Z,4.00
2019-05-29T05:40:55.652Z,4.43
2019-05-29T05:43:24.718Z,4.00
2019-05-29T05:45:53.252Z,4.27
2019-05-29T05:48:21.668Z,3.60
2019-05-29T05:50:50.207Z,3.83
2019-05-29T05:53:18.591Z,3.20
2019-05-29T05:55:47.016Z,3.80
2019-05-29T05:58:15.399Z,3.83
2019-05-29T06:00:43.790Z,3.90
2019-05-29T06:03:12.201Z,3.90
2019-05-29T06:05:40.628Z,3.97
2019-05-29T06:08:09.019Z,3.73
2019-05-29T06:10:38.200Z,3.83
2019-05-29T06:13:06.728Z,4.27
2019-05-29T06:15:36.401Z,4.07
2019-05-29T06:18:20.458Z,3.60
2019-05-29T06:20:35.166Z,3.37
2019-05-29T06:23:03.580Z,3.50
2019-05-29T06:25:33.632Z,4.03
2019-05-29T06:28:02.040Z,4.13
2019-05-29T06:30:30.464Z,4.07
2019-05-29T06:32:58.940Z,4.07
2019-05-29T06:35:27.353Z,3.83
2019-05-29T06:37:55.787Z,4.13
2019-05-29T06:40:38.441Z,4.27
2019-05-29T06:43:11.649Z,5.70
2019-05-29T06:45:38.197Z,3.67
2019-05-29T06:48:07.861Z,3.57
2019-05-29T06:50:37.345Z,3.33
2019-05-29T06:53:05.857Z,2.90
2019-05-29T06:55:35.665Z,3.70
2019-05-29T06:58:04.327Z,3.13
2019-05-29T07:00:35.578Z,2.67
2019-05-29T07:03:02.760Z,2.97
2019-05-29T07:05:31.148Z,1.90
2019-05-29T07:08:16.553Z,2.17
2019-05-29T07:10:30.572Z,2.03
2019-05-29T07:12:58.965Z,1.67
2019-05-29T07:15:27.340Z,1.37
2019-05-29T07:17:55.760Z,1.83
2019-05-29T07:20:24.163Z,2.00
2019-05-29T07:22:52.545Z,1.50
2019-05-29T07:25:20.960Z,2.10
2019-05-29T07:27:49.356Z,2.20
2019-05-29T07:30:17.856Z,1.80
2019-05-29T07:32:56.336Z,1.70
2019-05-29T07:35:16.264Z,1.87
2019-05-29T07:37:45.934Z,1.63
2019-05-29T07:40:14.470Z,2.00
2019-05-29T07:42:49.728Z,1.80
2019-05-29T07:45:13.149Z,2.03
2019-05-29T07:47:42.481Z,1.77
2019-05-29T07:50:11.269Z,2.00
2019-05-29T07:52:40.823Z,2.10
2019-05-29T07:55:09.457Z,2.00
2019-05-29T07:57:38.823Z,2.10
2019-05-29T08:00:08.278Z,2.23
2019-05-29T08:02:36.726Z,1.87
2019-05-29T08:05:05.652Z,2.13
2019-05-29T08:07:34.080Z,2.10
2019-05-29T08:10:02.550Z,1.87
2019-05-29T08:12:30.934Z,1.90
2019-05-29T08:15:19.034Z,2.03
2019-05-29T08:17:48.170Z,2.37
2019-05-29T08:20:16.630Z,1.93
2019-05-29T08:22:46.300Z,2.60
2019-05-29T08:25:14.850Z,2.07
2019-05-29T08:27:44.609Z,2.23
2019-05-29T08:30:13.217Z,1.97
2019-05-29T08:32:43.415Z,2.10
2019-05-29T08:35:11.654Z,2.30
2019-05-29T08:37:40.788Z,2.30
2019-05-29T08:40:09.367Z,2.53
2019-05-29T08:42:37.773Z,2.40
2019-05-29T08:45:08.872Z,2.60
2019-05-29T08:47:37.679Z,2.57
2019-05-29T08:50:18.250Z,1.90
2019-05-29T08:52:36.629Z,2.07
2019-05-29T08:55:05.567Z,1.97
2019-05-29T08:57:34.137Z,1.90
2019-05-29T09:00:02.615Z,1.87
2019-05-29T09:02:32.630Z,2.10
2019-05-29T09:05:01.035Z,3.47
2019-05-29T09:07:29.470Z,2.00
2019-05-29T09:09:57.889Z,2.17
2019-05-29T09:12:29.712Z,2.23
2019-05-29T09:14:56.330Z,1.90
2019-05-29T09:17:24.719Z,1.90
2019-05-29T09:19:53.112Z,1.80
2019-05-29T09:22:22.834Z,1.73
2019-05-29T09:24:51.373Z,1.90
2019-05-29T09:27:19.800Z,2.10
2019-05-29T09:29:48.237Z,2.10
2019-05-29T09:32:18.017Z,2.00
2019-05-29T09:34:47.715Z,2.10
2019-05-29T09:37:17.323Z,2.30
2019-05-29T09:39:46.311Z,2.10
2019-05-29T09:42:15.080Z,2.57
2019-05-29T09:44:44.939Z,2.17
2019-05-29T09:47:13.326Z,1.87
2019-05-29T09:49:41.733Z,1.80
2019-05-29T09:52:10.103Z,2.00
2019-05-29T09:54:38.508Z,2.50
2019-05-29T09:57:06.961Z,2.63
2019-05-29T09:59:35.365Z,2.30
2019-05-29T10:02:07.519Z,2.20
2019-05-29T10:04:33.830Z,3.37
2019-05-29T10:07:03.041Z,2.57
2019-05-29T10:09:32.260Z,2.60
2019-05-29T10:12:04.118Z,4.17
2019-05-29T10:14:30.701Z,3.00
2019-05-29T10:17:02.709Z,4.40
2019-05-29T10:19:29.218Z,4.10
2019-05-29T10:21:58.323Z,3.53
2019-05-29T10:24:27.676Z,2.90
2019-05-29T10:26:57.455Z,2.93
2019-05-29T10:29:26.103Z,2.93
2019-05-29T10:31:54.519Z,3.70
2019-05-29T10:34:22.944Z,3.53
2019-05-29T10:36:53.573Z,2.80
2019-05-29T10:39:21.365Z,3.30
2019-05-29T10:41:50.879Z,4.10
2019-05-29T10:44:19.470Z,3.47
2019-05-29T10:46:49.959Z,3.37
2019-05-29T10:49:17.876Z,3.33
2019-05-29T10:52:02.220Z,2.90
2019-05-29T10:54:16.372Z,3.10
2019-05-29T10:56:44.864Z,2.73
2019-05-29T10:59:13.270Z,3.00
2019-05-29T11:01:41.743Z,3.07
2019-05-29T11:04:10.111Z,2.83
2019-05-29T11:06:40.898Z,2.97
2019-05-29T11:09:08.534Z,2.87
2019-05-29T11:11:36.941Z,2.80
2019-05-29T11:14:16.172Z,2.40
2019-05-29T11:16:44.655Z,3.10
2019-05-29T11:19:13.117Z,2.73
2019-05-29T11:21:41.588Z,2.80
2019-05-29T11:24:09.984Z,3.33
2019-05-29T11:26:38.376Z,3.40
2019-05-29T11:29:06.850Z,3.20
2019-05-29T11:31:35.257Z,3.57
2019-05-29T11:34:03.682Z,4.67
2019-05-29T11:36:32.068Z,4.50
2019-05-29T11:39:05.358Z,4.30
2019-05-29T11:41:30.687Z,3.93
2019-05-29T11:43:59.097Z,3.43
2019-05-29T11:46:27.512Z,3.80
2019-05-29T11:48:57.231Z,4.60
2019-05-29T11:51:25.711Z,4.70
2019-05-29T11:53:55.325Z,4.70
2019-05-29T11:56:23.896Z,4.60
2019-05-29T11:58:52.780Z,4.23
2019-05-29T12:01:21.277Z,4.33
2019-05-29T12:04:13.348Z,4.13
2019-05-29T12:06:39.129Z,4.20
2019-05-29T12:09:09.649Z,4.93
2019-05-29T12:11:38.301Z,5.03
2019-05-29T12:14:06.698Z,4.90
2019-05-29T12:16:35.192Z,4.77
2019-05-29T12:19:03.571Z,4.43
2019-05-29T12:21:31.982Z,5.07
2019-05-29T12:24:00.391Z,4.63
2019-05-29T12:26:28.822Z,5.00
2019-05-29T12:29:04.528Z,4.23
2019-05-29T12:31:27.261Z,4.87
2019-05-29T12:33:58.689Z,4.33
2019-05-29T12:36:25.830Z,4.03
2019-05-29T12:38:55.206Z,4.80
2019-05-29T12:41:23.780Z,5.37
2019-05-29T12:43:53.193Z,4.33
2019-05-29T12:46:21.786Z,5.67
2019-05-29T12:48:50.172Z,6.00
2019-05-29T12:51:18.572Z,4.90
2019-05-29T12:53:46.949Z,5.90
2019-05-29T12:56:15.378Z,8.40
2019-05-29T12:58:43.753Z,9.40
2019-05-29T13:01:12.148Z,8.43
2019-05-29T13:03:40.546Z,8.60
2019-05-29T13:06:08.922Z,9.07
2019-05-29T13:08:37.332Z,9.40
2019-05-29T13:11:05.720Z,7.47
2019-05-29T13:13:34.108Z,9.67
2019-05-29T13:16:03.013Z,10.30
2019-05-29T13:18:32.544Z,9.77
2019-05-29T13:21:01.032Z,9.70
2019-05-29T13:23:43.985Z,9.63
2019-05-29T13:25:59.469Z,8.43
2019-05-29T13:28:27.883Z,8.67
2019-05-29T13:30:57.636Z,8.00
2019-05-29T13:33:26.180Z,7.53
2019-05-29T13:35:56.142Z,7.50
2019-05-29T13:38:24.663Z,7.00
2019-05-29T13:40:53.096Z,7.57
2019-05-29T13:43:21.477Z,6.83
2019-05-29T13:45:49.867Z,6.20
2019-05-29T13:48:18.301Z,6.97
2019-05-29T13:50:48.815Z,8.03
2019-05-29T13:53:16.780Z,7.37
2019-05-29T13:55:45.178Z,6.37
2019-05-29T13:58:13.658Z,6.20
2019-05-29T14:00:42.018Z,6.67
2019-05-29T14:03:10.430Z,7.17
2019-05-29T14:05:38.831Z,7.40
2019-05-29T14:08:07.303Z,7.00
2019-05-29T14:10:35.624Z,7.47
2019-05-29T14:13:05.233Z,7.53
2019-05-29T14:15:33.683Z,8.77
2019-05-29T14:18:02.839Z,7.43
2019-05-29T14:20:31.432Z,6.80
2019-05-29T14:23:01.141Z,7.53
2019-05-29T14:25:29.740Z,6.33
2019-05-29T14:27:58.146Z,5.97
2019-05-29T14:30:26.627Z,7.20
2019-05-29T14:32:55.036Z,7.03
2019-05-29T14:35:23.504Z,7.43
2019-05-29T14:37:51.967Z,7.73
2019-05-29T14:40:20.339Z,7.77
2019-05-29T14:42:48.838Z,7.43
2019-05-29T14:45:17.164Z,7.10
2019-05-29T14:47:45.572Z,6.70
2019-05-29T14:50:13.950Z,8.07
2019-05-29T14:52:42.346Z,9.03
2019-05-29T14:55:16.092Z,8.60
2019-05-29T14:57:41.083Z,9.43
2019-05-29T15:00:22.143Z,8.97
2019-05-29T15:02:41.312Z,8.53
2019-05-29T15:05:09.892Z,6.23
2019-05-29T15:07:38.367Z,9.60
2019-05-29T15:10:12.798Z,7.97
2019-05-29T15:12:38.363Z,7.53
2019-05-29T15:15:08.636Z,6.27
2019-05-29T15:17:37.538Z,7.07
2019-05-29T15:20:09.356Z,5.87
2019-05-29T15:22:37.779Z,6.10
2019-05-29T15:25:19.493Z,7.63
2019-05-29T15:27:39.779Z,6.70
2019-05-29T15:30:08.938Z,7.23
2019-05-29T15:32:37.676Z,7.07
2019-05-29T15:35:10.963Z,6.70
2019-05-29T15:37:37.389Z,6.47
2019-05-29T15:40:08.997Z,6.67
2019-05-29T15:42:37.460Z,6.80
2019-05-29T15:45:07.704Z,5.90
2019-05-29T15:47:36.127Z,5.97
2019-05-29T15:50:11.553Z,5.83
2019-05-29T15:52:40.184Z,5.43
2019-05-29T15:55:21.426Z,6.40
2019-05-29T15:57:38.680Z,6.90
2019-05-29T16:00:13.382Z,6.10
2019-05-29T16:02:41.985Z,6.57
2019-05-29T16:05:11.100Z,6.10
2019-05-29T16:07:39.692Z,6.57
2019-05-29T16:10:08.333Z,6.10
2019-05-29T16:12:36.695Z,6.50
2019-05-29T16:15:06.648Z,6.53
2019-05-29T16:17:35.058Z,5.97
2019-05-29T16:20:05.040Z,6.27
2019-05-29T16:22:33.445Z,5.80
2019-05-29T16:25:01.818Z,6.27
2019-05-29T16:27:31.090Z,5.80
2019-05-29T16:29:59.617Z,6.07
2019-05-29T16:32:28.054Z,5.77
2019-05-29T16:34:56.424Z,6.70
2019-05-29T16:37:24.831Z,6.20
2019-05-29T16:39:53.309Z,6.80
2019-05-29T16:42:22.107Z,6.00
2019-05-29T16:44:50.611Z,6.50
2019-05-29T16:47:19.075Z,7.13
2019-05-29T16:49:47.457Z,6.10
2019-05-29T16:52:16.826Z,6.83
2019-05-29T16:54:45.275Z,6.63
2019-05-29T16:57:15.396Z,6.37
2019-05-29T16:59:43.819Z,6.60
2019-05-29T17:02:13.519Z,6.63
2019-05-29T17:04:42.361Z,6.53
2019-05-29T17:07:10.787Z,6.20
2019-05-29T17:09:39.211Z,6.53
2019-05-29T17:12:07.587Z,5.40
2019-05-29T17:14:35.993Z,5.90
2019-05-29T17:17:04.408Z,5.83
2019-05-29T17:19:32.809Z,9.83
2019-05-29T17:22:01.318Z,10.73
2019-05-29T17:24:29.908Z,10.97
2019-05-29T17:26:58.343Z,11.23
2019-05-29T17:29:26.736Z,10.90
2019-05-29T17:31:55.156Z,9.87
2019-05-29T17:34:23.548Z,10.23
2019-05-29T17:36:52.961Z,10.87
2019-05-29T17:39:21.438Z,10.53
2019-05-29T17:41:49.859Z,10.57
2019-05-29T17:44:19.334Z,9.53
2019-05-29T17:46:47.844Z,10.80
2019-05-29T17:49:17.640Z,9.83
2019-05-29T17:51:46.181Z,11.33
2019-05-29T17:54:15.708Z,12.07
2019-05-29T17:56:44.276Z,12.53
2019-05-29T17:59:12.773Z,13.17
2019-05-29T18:01:41.160Z,12.33
2019-05-29T18:04:09.574Z,11.57
2019-05-29T18:06:37.997Z,10.33
2019-05-29T18:09:07.942Z,9.37
2019-05-29T18:11:36.362Z,9.57
2019-05-29T18:14:07.577Z,9.50
2019-05-29T18:16:34.830Z,8.77
2019-05-29T18:19:03.230Z,5.80
2019-05-29T18:21:31.647Z,4.60
2019-05-29T18:24:00.086Z,3.07
2019-05-29T18:26:45.953Z,2.03
2019-05-29T18:28:58.573Z,1.73
2019-05-29T18:31:26.960Z,1.50
2019-05-29T18:33:55.372Z,1.40
2019-05-29T18:36:25.241Z,1.67
2019-05-29T18:38:53.908Z,1.60
2019-05-29T18:41:22.328Z,1.70
2019-05-29T18:43:50.736Z,1.80
2019-05-29T18:46:19.144Z,1.47
2019-05-29T18:48:47.534Z,2.80
2019-05-29T18:51:15.968Z,1.50
2019-05-29T18:53:44.361Z,1.63
2019-05-29T18:56:12.779Z,2.67
2019-05-29T18:58:41.205Z,1.40
2019-05-29T19:01:09.568Z,1.60
2019-05-29T19:03:40.375Z,1.40
2019-05-29T19:06:07.995Z,1.60
2019-05-29T19:08:36.417Z,1.60
2019-05-29T19:11:04.908Z,1.70
2019-05-29T19:13:33.311Z,1.70
2019-05-29T19:16:01.817Z,2.37
2019-05-29T19:18:30.265Z,1.50
2019-05-29T19:20:58.599Z,1.30
2019-05-29T19:23:26.997Z,1.83
2019-05-29T19:25:55.380Z,1.50
2019-05-29T19:28:24.554Z,1.00
2019-05-29T19:30:52.979Z,1.10
2019-05-29T19:33:21.387Z,1.70
2019-05-29T19:35:49.930Z,1.40
2019-05-29T19:38:18.322Z,1.23
2019-05-29T19:40:46.727Z,1.10
2019-05-29T19:43:15.126Z,1.10
2019-05-29T19:45:43.531Z,1.47
2019-05-29T19:48:11.912Z,1.40
2019-05-29T19:50:40.335Z,1.37
2019-05-29T19:53:08.743Z,1.27
2019-05-29T19:55:38.387Z,1.43
2019-05-29T19:58:06.931Z,1.17
2019-05-29T20:00:36.298Z,1.07
2019-05-29T20:03:05.185Z,1.17
2019-05-29T20:05:34.844Z,1.10
2019-05-29T20:08:03.303Z,1.53
2019-05-29T20:10:31.688Z,1.20
2019-05-29T20:13:00.088Z,1.17
2019-05-29T20:15:29.805Z,1.07
2019-05-29T20:17:58.453Z,1.13
2019-05-29T20:20:26.828Z,1.17
2019-05-29T20:22:55.231Z,1.07
2019-05-29T20:25:23.636Z,1.00
2019-05-29T20:28:05.499Z,1.10
2019-05-29T20:30:24.750Z,1.27
2019-05-29T20:32:53.119Z,1.27
2019-05-29T20:35:21.540Z,1.13
2019-05-29T20:37:49.938Z,1.43
2019-05-29T20:40:18.979Z,1.27
2019-05-29T20:42:47.359Z,1.30
2019-05-29T20:45:15.737Z,1.87
2019-05-29T20:47:44.148Z,1.50
2019-05-29T20:50:12.555Z,1.50
2019-05-29T20:52:41.486Z,1.50
2019-05-29T20:55:09.938Z,1.50
2019-05-29T20:57:38.332Z,1.63
2019-05-29T21:00:11.713Z,1.30
2019-05-29T21:02:40.499Z,1.47
2019-05-29T21:05:08.884Z,1.63
2019-05-29T21:07:37.337Z,1.40
2019-05-29T21:10:05.740Z,1.73
2019-05-29T21:12:35.151Z,1.47
2019-05-29T21:15:04.585Z,1.53
2019-05-29T21:17:33.731Z,1.63
2019-05-29T21:20:02.203Z,1.40
2019-05-29T21:22:30.582Z,1.20
2019-05-29T21:25:05.366Z,1.30
2019-05-29T21:27:29.413Z,1.47
2019-05-29T21:29:57.796Z,1.33
2019-05-29T21:32:26.205Z,1.77
2019-05-29T21:34:54.599Z,1.40
2019-05-29T21:37:23.007Z,1.40
2019-05-29T21:39:51.392Z,1.73
2019-05-29T21:42:19.791Z,1.50
2019-05-29T21:44:48.197Z,1.40
2019-05-29T21:47:16.572Z,1.50
2019-05-29T21:49:45.317Z,1.53
2019-05-29T21:52:13.701Z,1.70
2019-05-29T21:54:43.561Z,1.37
2019-05-29T21:57:12.057Z,1.70
2019-05-29T21:59:41.623Z,1.43
2019-05-29T22:02:10.740Z,1.80
2019-05-29T22:04:40.337Z,1.60
2019-05-29T22:07:08.841Z,1.60
2019-05-29T22:09:37.269Z,1.90
2019-05-29T22:12:05.718Z,1.80
2019-05-29T22:14:34.196Z,1.80
2019-05-29T22:17:02.595Z,1.80
2019-05-29T22:19:31.047Z,1.57
2019-05-29T22:21:59.450Z,1.80
2019-05-29T22:24:30.786Z,1.40
2019-05-29T22:26:59.396Z,1.60
2019-05-29T22:29:27.820Z,1.80
2019-05-29T22:31:57.489Z,1.37
2019-05-29T22:34:26.078Z,2.00
2019-05-29T22:36:55.475Z,1.93
2019-05-29T22:39:24.019Z,1.80
2019-05-29T22:41:53.414Z,1.77
2019-05-29T22:44:21.940Z,2.10
2019-05-29T22:46:51.558Z,1.77
2019-05-29T22:49:20.020Z,1.70
2019-05-29T22:51:48.405Z,1.53
2019-05-29T22:54:16.803Z,1.80
2019-05-29T22:56:46.185Z,1.50
2019-05-29T22:59:30.912Z,2.00
2019-05-29T23:01:44.707Z,1.80
2019-05-29T23:04:13.094Z,1.80
2019-05-29T23:06:42.448Z,1.67
2019-05-29T23:09:10.807Z,1.90
2019-05-29T23:11:39.209Z,1.53
2019-05-29T23:14:07.616Z,1.90
2019-05-29T23:16:36.091Z,2.00
2019-05-29T23:19:04.532Z,1.80
2019-05-29T23:21:33.924Z,1.87
2019-05-29T23:24:02.342Z,1.90
2019-05-29T23:26:30.766Z,1.67
2019-05-29T23:28:59.347Z,1.87
2019-05-29T23:31:27.725Z,2.20
2019-05-29T23:33:56.928Z,2.20
2019-05-29T23:36:25.322Z,2.10
2019-05-29T23:38:54.887Z,2.07
2019-05-29T23:41:23.558Z,2.33
2019-05-29T23:43:53.244Z,2.40
2019-05-29T23:46:21.817Z,2.57
2019-05-29T23:48:50.230Z,2.60
2019-05-29T23:51:18.647Z,2.43
2019-05-29T23:53:47.131Z,2.80
2019-05-29T23:56:15.532Z,2.60
2019-05-29T23:58:43.959Z,2.80
